Latest Weather Observations for Sydney Airport

IDN60901

Issued at 2:11 pm EDT Wednesday 1 December 2021 (issued every 10 minutes, with the page automatically refreshed every 10 minutes)

About weather observations | Map of Sydney area stations | Latest observations for Sydney area | Other Formats
Station Details ID: 066037 Name: SYDNEY AIRPORT AMO Lat: -33.95 Lon: 151.17 Height: 6.0 m
Data from the previous 72 hours. | See also: Recent months at Sydney Airport
Date/Time
EDT
Temp
°C
App
Temp
°C
Dew
Point
°C
Rel
Hum
%
Delta-T
°C
Wind Press
QNH
hPa
Press
MSL
hPa
Rain since
9am
mm
Dir  Spd
km/h
Gust
km/h
Spd
kts
Gust
kts
01/02:00pm 25.4 22.1 15.1 53 6.2 NE 26 33 14 18 1015.1 1015.1 0.2
01/01:30pm 25.7 22.8 15.1 52 6.4 NE 24 30 13 16 1015.4 1015.4 0.2
01/01:00pm 25.4 22.1 16.0 56 5.7 NE 28 37 15 20 1015.6 1015.6 0.2
01/12:30pm 25.8 22.8 15.8 54 6.1 ENE 26 35 14 19 1015.7 1015.7 0.2
01/12:00pm 24.7 22.6 15.1 55 5.8 NE 20 30 11 16 1016.0 1016.0 0.2
01/11:30am 25.0 22.1 16.2 58 5.4 NNE 26 33 14 18 1016.1 1016.1 0.2
01/11:00am 24.2 21.8 15.4 58 5.3 NNE 22 30 12 16 1016.2 1016.2 0.2
01/10:30am 24.8 22.9 15.7 57 5.5 NNE 20 28 11 15 1016.3 1016.3 0.2
01/10:00am 24.0 22.6 17.0 65 4.3 NE 20 26 11 14 1016.3 1016.3 0.0
01/09:30am 23.8 24.1 18.7 73 3.2 NE 15 19 8 10 1016.2 1016.2 0.0
01/09:00am 22.9 23.7 18.2 75 2.9 N 11 13 6 7 1016.3 1016.3 1.2
01/08:30am 22.4 23.1 18.0 76 2.7 NNE 11 15 6 8 1016.3 1016.3 1.2
01/08:00am 21.6 22.6 18.6 83 1.9 NNE 11 13 6 7 1016.1 1016.1 1.2
01/07:30am 20.8 22.3 18.0 84 1.7 NNE 7 9 4 5 1015.9 1015.9 1.2
01/07:00am 21.3 22.8 18.9 86 1.5 NNE 9 11 5 6 1015.7 1015.7 1.2
01/06:30am 20.9 21.8 18.5 86 1.5 N 11 13 6 7 1015.3 1015.3 1.2
01/06:00am 20.1 21.0 18.4 90 1.1 NNE 11 13 6 7 1014.9 1014.9 1.2
01/05:30am 19.9 21.5 18.2 90 1.1 NNE 7 9 4 5 1014.8 1014.8 1.2
01/05:00am 20.2 21.1 18.5 90 1.1 NNE 11 15 6 8 1014.5 1014.5 1.2
01/04:30am 20.2 20.5 18.7 91 0.9 NNE 15 19 8 10 1014.3 1014.3 1.2
01/04:00am 20.0 21.1 18.8 93 0.8 NNE 11 15 6 8 1014.5 1014.5 1.2
01/03:46am 19.8 21.5 18.6 93 0.7 NNE 7 11 4 6 1014.6 1014.6 1.2
01/03:30am 19.7 21.1 18.7 94 0.6 NE 9 13 5 7 1014.5 1014.5 1.2
01/03:00am 19.6 19.8 18.6 94 0.6 NE 15 20 8 11 1014.7 1014.7 1.2
01/02:51am 19.6 19.1 18.6 94 0.6 NE 19 26 10 14 1014.6 1014.6 1.2
01/02:30am 19.7 19.5 18.4 92 0.8 NNE 17 20 9 11 1014.6 1014.6 1.2
01/02:24am 19.8 19.9 18.3 91 0.9 NNE 15 19 8 10 1014.7 1014.7 1.2
01/02:00am 20.0 20.4 18.1 89 1.2 NNE 13 17 7 9 1015.0 1015.0 1.2
01/01:30am 19.9 19.5 18.0 89 1.2 NNE 17 20 9 11 1015.2 1015.2 1.2
01/01:00am 20.2 20.7 18.3 89 1.2 NNE 13 17 7 9 1015.5 1015.5 1.2
01/12:30am 20.2 21.0 18.1 88 1.3 NNE 11 17 6 9 1015.9 1015.9 1.2
01/12:00am 20.4 21.3 18.5 89 1.2 N 11 15 6 8 1016.2 1016.2 1.2
 
Date/Time
EDT
Temp
°C
App
Temp
°C
Dew
Point
°C
Rel
Hum
%
Delta-T
°C
Wind Press
QNH
hPa
Press
MSL
hPa
Rain since
9am
mm
Dir  Spd
km/h
Gust
km/h
Spd
kts
Gust
kts
30/11:30pm 20.4 21.8 18.7 90 1.1 NE 9 11 5 6 1016.2 1016.2 1.2
30/11:00pm 20.2 21.1 18.5 90 1.1 NNE 11 13 6 7 1016.3 1016.3 1.2
30/10:30pm 20.7 20.8 19.2 91 0.9 NNE 17 19 9 10 1016.3 1016.3 1.2
30/10:00pm 20.0 19.6 19.0 94 0.6 NNE 19 24 10 13 1016.2 1016.2 1.2
30/09:51pm 19.8 19.7 18.8 94 0.6 NNE 17 22 9 12 1016.3 1016.3 1.2
30/09:46pm 19.8 19.6 18.6 93 0.7 NNE 17 20 9 11 1016.4 1016.4 1.0
30/09:30pm 20.0 21.1 18.8 93 0.8 NNE 11 15 6 8 1016.3 1016.3 1.0
30/09:15pm 20.0 20.8 19.0 94 0.6 N 13 17 7 9 1016.3 1016.3 1.0
30/09:00pm 20.0 20.7 18.8 93 0.7 NNE 13 17 7 9 1016.2 1016.2 1.0
30/08:54pm 19.8 20.4 18.5 92 0.8 NNE 13 15 7 8 1016.2 1016.2 1.0
30/08:30pm 20.2 21.4 19.0 93 0.8 NNE 11 13 6 7 1016.4 1016.4 1.0
30/08:18pm 19.9 21.4 18.9 94 0.6 N 9 13 5 7 1016.4 1016.4 1.0
30/08:00pm 19.6 20.2 18.6 94 0.6 NNE 13 15 7 8 1016.2 1016.2 1.0
30/07:30pm 19.8 20.8 18.6 93 0.7 NE 11 13 6 7 1016.1 1016.1 1.0
30/07:13pm 19.7 21.1 18.7 94 0.6 NNE 9 13 5 7 1016.0 1016.0 1.0
30/07:00pm 19.5 20.1 18.5 94 0.6 NNE 13 15 7 8 1016.0 1016.0 1.0
30/06:30pm 19.4 19.8 18.2 93 0.7 ENE 13 17 7 9 1016.0 1016.0 0.8
30/06:14pm 19.9 19.7 18.4 91 0.9 ENE 17 22 9 12 1016.0 1016.0 0.6
30/06:00pm 20.2 20.0 18.5 90 1.1 NE 17 24 9 13 1016.0 1016.0 0.6
30/05:30pm 20.7 20.5 18.6 88 1.3 NE 17 22 9 12 1015.6 1015.6 0.6
30/05:00pm 20.5 20.4 18.8 90 1.1 NE 17 19 9 10 1015.8 1015.8 0.6
30/04:52pm 20.3 20.2 18.8 91 0.9 ENE 17 20 9 11 1015.9 1015.9 0.6
30/04:30pm 20.1 21.0 19.3 95 0.5 NE 13 19 7 10 1015.7 1015.7 0.6
30/04:24pm 20.1 20.7 19.4 96 0.4 ENE 15 19 8 10 1015.7 1015.7 0.6
30/04:00pm 19.2 19.4 18.5 96 0.4 SE 15 19 8 10 1016.2 1016.2 0.6
30/03:54pm 19.2 19.4 18.5 96 0.4 SE 15 17 8 9 1016.5 1016.5 0.6
30/03:30pm 19.0 18.7 18.3 96 0.4 SE 17 20 9 11 1016.4 1016.4 0.6
30/03:00pm 19.0 19.0 18.2 95 0.5 SE 15 19 8 10 1016.5 1016.5 0.6
30/02:49pm 19.2 19.4 18.5 96 0.4 SE 15 17 8 9 1016.5 1016.5 0.6
30/02:30pm 19.0 19.0 18.2 95 0.5 SSE 15 17 8 9 1017.0 1017.0 0.6
30/02:27pm 18.8 18.8 18.0 95 0.5 SSE 15 17 8 9 1017.0 1017.0 0.4
30/02:17pm 18.7 18.9 17.7 94 0.6 SSE 13 17 7 9 1017.0 1017.0 0.4
30/02:00pm 19.1 19.0 17.9 93 0.7 SSE 15 17 8 9 1017.2 1017.2 0.0
30/01:56pm 18.7 18.4 17.4 92 0.8 SSE 15 19 8 10 1017.1 1017.1 0.0
30/01:37pm 19.2 18.7 17.0 87 1.3 SE 15 19 8 10 1017.1 1017.1 0.0
30/01:30pm 20.0 19.5 16.8 82 1.9 SE 15 19 8 10 1017.1 1017.1 0.0
30/01:00pm 19.6 20.1 17.4 87 1.3 SSE 11 15 6 8 1017.0 1017.0 0.0
30/12:53pm 19.3 19.2 16.9 86 1.5 SSE 13 15 7 8 1017.0 1017.0 0.0
30/12:43pm 19.3 19.5 16.7 85 1.6 SE 11 15 6 8 1017.3 1017.3 0.0
30/12:30pm 20.2 20.0 16.8 81 2.1 SE 13 17 7 9 1017.5 1017.5 0.0
30/12:28pm 20.5 20.3 16.7 79 2.3 SE 13 17 7 9 1017.5 1017.5 0.0
30/12:00pm 20.3 19.9 16.3 78 2.4 SE 13 15 7 8 1018.0 1018.0 0.0
30/11:30am 20.3 19.9 16.1 77 2.5 SE 13 17 7 9 1018.3 1018.3 0.0
30/11:00am 20.1 20.0 15.9 77 2.5 SSE 11 13 6 7 1018.5 1018.5 0.0
30/10:30am 20.3 20.3 16.3 78 2.4 SSE 11 13 6 7 1018.4 1018.4 0.0
30/10:00am 19.8 19.7 15.9 78 2.3 SSE 11 13 6 7 1018.8 1018.8 0.0
30/09:30am 19.4 19.2 15.7 79 2.2 SSE 11 15 6 8 1018.9 1018.9 0.0
30/09:00am 19.3 19.1 15.6 79 2.2 S 11 13 6 7 1018.7 1018.7 0.2
30/08:30am 19.2 18.9 15.5 79 2.2 SSE 11 13 6 7 1018.6 1018.6 0.2
30/08:00am 19.0 18.4 15.7 81 1.9 S 13 13 7 7 1018.6 1018.6 0.2
30/07:30am 18.8 17.8 15.7 82 1.8 SSE 15 17 8 9 1018.2 1018.2 0.2
30/07:00am 18.6 18.0 15.7 83 1.7 SSE 13 15 7 8 1018.2 1018.2 0.2
30/06:30am 18.4 18.1 15.5 83 1.7 SSE 11 13 6 7 1018.1 1018.1 0.2
30/06:00am 18.3 17.6 15.4 83 1.7 SSE 13 15 7 8 1017.7 1017.7 0.2
30/05:30am 18.4 18.2 15.6 84 1.6 SE 11 13 6 7 1017.4 1017.4 0.2
30/05:00am 18.4 18.0 15.1 81 1.9 S 11 13 6 7 1017.5 1017.5 0.2
30/04:30am 18.6 18.1 14.9 79 2.2 SSW 11 15 6 8 1017.2 1017.2 0.2
30/04:00am 18.8 18.6 14.7 77 2.4 SW 9 9 5 5 1017.3 1017.3 0.2
30/03:30am 18.9 18.4 14.8 77 2.4 SW 11 13 6 7 1017.4 1017.4 0.2
30/03:00am 18.9 18.7 14.6 76 2.5 WSW 9 11 5 6 1017.5 1017.5 0.2
30/02:30am 19.1 19.8 14.6 75 2.6 NW 4 9 2 5 1017.7 1017.7 0.2
30/02:00am 19.7 19.9 14.7 73 2.9 N 7 11 4 6 1017.9 1017.9 0.2
30/01:30am 19.6 18.9 14.4 72 3.0 NNE 11 13 6 7 1018.0 1018.0 0.2
30/01:00am 19.8 18.9 14.8 73 2.9 NNE 13 15 7 8 1018.4 1018.4 0.2
30/12:30am 19.6 19.4 14.6 73 2.9 NNE 9 13 5 7 1018.5 1018.5 0.2
30/12:00am 19.5 18.7 14.1 71 3.1 NE 11 15 6 8 1018.6 1018.6 0.2
 
Date/Time
EDT
Temp
°C
App
Temp
°C
Dew
Point
°C
Rel
Hum
%
Delta-T
°C
Wind Press
QNH
hPa
Press
MSL
hPa
Rain since
9am
mm
Dir  Spd
km/h
Gust
km/h
Spd
kts
Gust
kts
29/11:30pm 19.7 18.5 14.1 70 3.2 NNE 13 19 7 10 1018.9 1018.9 0.2
29/11:00pm 19.3 18.8 13.7 70 3.2 NE 9 11 5 6 1018.6 1018.6 0.2
29/10:30pm 19.5 19.0 13.9 70 3.2 NNE 9 13 5 7 1018.7 1018.7 0.2
29/10:00pm 18.9 18.3 13.5 71 3.1 ENE 9 11 5 6 1018.7 1018.7 0.2
29/09:30pm 19.1 18.4 13.3 69 3.3 ENE 9 11 5 6 1018.6 1018.6 0.2
29/09:00pm 18.9 17.8 13.1 69 3.3 NE 11 15 6 8 1018.4 1018.4 0.2
29/08:30pm 19.0 17.7 12.5 66 3.6 NE 11 13 6 7 1018.3 1018.3 0.2
29/08:00pm 18.9 16.8 12.4 66 3.6 ENE 15 19 8 10 1018.0 1018.0 0.2
29/07:30pm 19.2 16.8 12.5 65 3.7 ENE 17 20 9 11 1017.9 1017.9 0.2
29/07:00pm 19.3 16.5 12.6 65 3.7 ENE 19 26 10 14 1017.7 1017.7 0.2
29/06:30pm 19.5 17.1 12.5 64 3.9 ENE 17 20 9 11 1017.8 1017.8 0.2
29/06:00pm 19.4 16.7 11.7 61 4.2 NE 17 20 9 11 1017.5 1017.5 0.2
29/05:30pm 19.7 17.1 12.0 61 4.3 ENE 17 24 9 13 1017.7 1017.7 0.2
29/05:00pm 19.8 17.2 12.1 61 4.3 E 17 24 9 13 1017.7 1017.7 0.2
29/04:30pm 19.6 16.9 11.6 60 4.4 ENE 17 22 9 12 1018.0 1018.0 0.2
29/04:00pm 19.7 16.9 11.5 59 4.5 E 17 24 9 13 1018.2 1018.2 0.2
29/03:30pm 20.3 17.5 11.5 57 4.9 ENE 17 26 9 14 1018.3 1018.3 0.2
29/03:00pm 20.0 17.0 10.7 55 5.0 E 17 26 9 14 1018.5 1018.5 0.2
29/02:30pm 21.1 17.9 12.0 56 5.1 SE 20 24 11 13 1018.8 1018.8 0.0
29/02:00pm 20.9 17.7 11.8 56 5.1 ESE 20 24 11 13 1018.9 1018.9 0.0
29/01:30pm 20.1 17.3 11.3 57 4.8 ESE 17 19 9 10 1019.2 1019.2 0.0
29/01:00pm 19.8 16.9 11.0 57 4.8 SE 17 24 9 13 1019.6 1019.6 0.0
29/12:30pm 20.5 17.4 11.7 57 4.9 ESE 19 24 10 13 1019.7 1019.7 0.0
29/12:00pm 19.4 17.3 12.4 64 3.9 SSE 15 20 8 11 1020.3 1020.3 0.0
29/11:30am 19.1 16.7 11.4 61 4.2 SSE 15 19 8 10 1020.6 1020.6 0.0
29/11:00am 19.5 17.0 11.0 58 4.6 SSE 15 19 8 10 1020.7 1020.7 0.0
29/10:30am 18.6 15.8 11.4 63 3.9 SSE 17 20 9 11 1020.9 1020.9 0.0
29/10:00am 18.2 15.4 11.3 64 3.7 SSE 17 20 9 11 1021.0 1021.0 0.0
29/09:30am 17.8 14.8 10.7 63 3.8 SSE 17 20 9 11 1021.2 1021.2 0.0
29/09:00am 17.9 14.8 11.5 66 3.5 SSE 19 22 10 12 1021.1 1021.1 0.0
29/08:30am 17.6 14.4 11.4 67 3.4 S 19 24 10 13 1021.2 1021.2 0.0
29/08:00am 17.0 15.4 11.5 70 3.0 SW 11 13 6 7 1021.0 1021.0 0.0
29/07:30am 16.5 14.9 11.4 72 2.8 SW 11 15 6 8 1021.0 1021.0 0.0
29/07:00am 15.6 13.6 11.4 76 2.2 WSW 13 15 7 8 1020.8 1020.8 0.0
29/06:30am 15.4 13.5 11.8 79 1.9 SSW 13 15 7 8 1020.4 1020.4 0.0
29/06:00am 14.8 12.8 11.6 81 1.7 WSW 13 15 7 8 1020.3 1020.3 0.0
29/05:30am 14.6 12.6 11.6 82 1.6 WSW 13 15 7 8 1020.2 1020.2 0.0
29/05:00am 14.8 12.8 11.4 80 1.8 WSW 13 15 7 8 1020.2 1020.2 0.0
29/04:30am 14.8 12.9 11.8 82 1.6 WSW 13 15 7 8 1020.1 1020.1 0.0
29/04:00am 14.8 12.8 11.6 81 1.7 WSW 13 15 7 8 1020.2 1020.2 0.0
29/03:30am 14.5 12.5 11.5 82 1.6 WSW 13 17 7 9 1020.2 1020.2 0.0
29/03:00am 14.4 12.4 11.6 83 1.5 WSW 13 15 7 8 1020.1 1020.1 0.0
29/02:30am 14.5 12.1 11.5 82 1.6 SW 15 19 8 10 1020.4 1020.4 0.0
29/02:00am 15.0 12.3 11.8 81 1.7 SW 17 19 9 10 1020.6 1020.6 0.0
29/01:30am 15.2 12.9 11.6 79 1.9 WSW 15 17 8 9 1020.9 1020.9 0.0
29/01:00am 15.7 13.7 11.5 76 2.3 W 13 17 7 9 1021.1 1021.1 0.0
29/12:30am 15.6 12.8 11.2 75 2.4 SSW 17 19 9 10 1021.2 1021.2 0.0
29/12:00am 16.3 13.3 12.1 76 2.3 SSW 19 24 10 13 1021.4 1021.4 0.0
 
Date/Time
EDT
Temp
°C
App
Temp
°C
Dew
Point
°C
Rel
Hum
%
Delta-T
°C
Wind Press
QNH
hPa
Press
MSL
hPa
Rain since
9am
mm
Dir  Spd
km/h
Gust
km/h
Spd
kts
Gust
kts
28/11:30pm 16.7 14.2 12.3 75 2.4 SSW 17 22 9 12 1021.9 1021.9 0.0
28/11:00pm 16.9 13.9 12.4 75 2.5 S 20 28 11 15 1022.2 1022.2 0.0
28/10:30pm 16.9 13.5 12.4 75 2.5 S 22 28 12 15 1022.0 1022.0 0.0
28/10:00pm 17.0 13.5 12.3 74 2.6 S 22 30 12 16 1022.1 1022.1 0.0
28/09:30pm 16.9 13.0 12.2 74 2.6 S 24 33 13 18 1022.5 1022.5 0.0
28/09:00pm 17.2 13.0 12.3 73 2.7 S 26 30 14 16 1022.0 1022.0 0.0
28/08:30pm 17.0 12.2 11.7 71 2.9 S 28 39 15 21 1021.7 1021.7 0.0
28/08:00pm 17.1 12.3 11.8 71 2.9 S 28 35 15 19 1021.6 1021.6 0.0
28/07:30pm 17.2 12.5 11.9 71 2.9 S 28 37 15 20 1021.3 1021.3 0.0
28/07:00pm 17.4 12.8 12.3 72 2.8 S 28 35 15 19 1021.2 1021.2 0.0
28/06:30pm 17.3 12.4 11.3 68 3.2 S 28 33 15 18 1021.2 1021.2 0.0
28/06:00pm 17.5 12.5 11.1 66 3.4 SSE 28 35 15 19 1021.0 1021.0 0.0
28/05:30pm 17.6 12.5 11.9 69 3.1 SSE 30 35 16 19 1020.9 1020.9 0.0
28/05:00pm 17.7 11.8 10.6 63 3.8 S 32 39 17 21 1020.9 1020.9 0.0
28/04:30pm 17.7 11.9 10.8 64 3.7 SSE 32 41 17 22 1020.8 1020.8 0.0
28/04:00pm 18.1 12.8 11.4 65 3.6 SSE 30 37 16 20 1021.1 1021.1 0.0
28/03:30pm 18.2 12.7 12.0 67 3.4 S 32 39 17 21 1021.3 1021.3 0.0
28/03:00pm 18.7 13.1 12.0 65 3.7 SSE 33 43 18 23 1021.1 1021.1 0.0
28/02:30pm 18.4 12.1 11.2 63 3.9 S 35 43 19 23 1021.1 1021.1 0.0

Latest Capital City Observations: Canberra | Sydney | Melbourne | Brisbane | Adelaide | Perth | Hobart | Darwin

Other formats

Comma delimited format used in spreadsheet applications
http://www.bom.gov.au/fwo/IDN60901/IDN60901.94767.axf

JavaScript Object Notation format (JSON) in row-major order
http://www.bom.gov.au/fwo/IDN60901/IDN60901.94767.json

Data quality

Most of these data are generated automatically and are frequently updated. Quality checks on data are not normally performed. It is possible for incorrect values to appear. Refer to information at About Latest Weather Observations and please check the disclaimer before using these data.